sensor_id;sensor_type;location;lat;lon;timestamp;pressure;altitude;pressure_sealevel;temperature;humidity
31775;BME280;66189;49.000;11.640;2023-02-16T00:01:15;97036.19;;;-3.23;92.75
31775;BME280;66189;49.000;11.640;2023-02-16T00:03:19;97027.97;;;-3.09;92.55
31775;BME280;66189;49.000;11.640;2023-02-16T00:07:24;97023.34;;;-3.19;92.73
31775;BME280;66189;49.000;11.640;2023-02-16T00:09:24;97033.56;;;-3.23;92.93
31775;BME280;66189;49.000;11.640;2023-02-16T00:11:31;97030.25;;;-3.35;93.14
31775;BME280;66189;49.000;11.640;2023-02-16T00:13:51;97023.22;;;-3.29;93.10
31775;BME280;66189;49.000;11.640;2023-02-16T00:15:53;97032.84;;;-3.18;93.29
31775;BME280;66189;49.000;11.640;2023-02-16T00:17:54;97028.25;;;-3.28;93.34
31775;BME280;66189;49.000;11.640;2023-02-16T00:19:56;97028.50;;;-3.29;93.26
31775;BME280;66189;49.000;11.640;2023-02-16T00:21:58;97023.97;;;-3.12;93.05
31775;BME280;66189;49.000;11.640;2023-02-16T00:23:58;97020.09;;;-3.26;93.05
31775;BME280;66189;49.000;11.640;2023-02-16T00:25:59;97024.88;;;-3.23;92.86
31775;BME280;66189;49.000;11.640;2023-02-16T00:28:25;97028.53;;;-3.24;93.05
31775;BME280;66189;49.000;11.640;2023-02-16T00:30:26;97024.88;;;-3.23;93.01
31775;BME280;66189;49.000;11.640;2023-02-16T00:32:26;97024.47;;;-3.15;92.76
31775;BME280;66189;49.000;11.640;2023-02-16T00:34:41;97024.88;;;-3.23;93.08
31775;BME280;66189;49.000;11.640;2023-02-16T00:36:41;97022.06;;;-3.16;93.23
31775;BME280;66189;49.000;11.640;2023-02-16T00:38:42;97021.78;;;-3.20;93.19
31775;BME280;66189;49.000;11.640;2023-02-16T00:40:42;97016.66;;;-3.10;93.35
31775;BME280;66189;49.000;11.640;2023-02-16T00:42:45;97023.34;;;-3.19;93.12
31775;BME280;66189;49.000;11.640;2023-02-16T00:44:52;97025.72;;;-3.17;93.35
31775;BME280;66189;49.000;11.640;2023-02-16T00:46:54;97026.84;;;-3.13;93.25
31775;BME280;66189;49.000;11.640;2023-02-16T00:48:54;97023.97;;;-3.12;93.09
31775;BME280;66189;49.000;11.640;2023-02-16T00:50:55;97028.53;;;-3.24;93.17
31775;BME280;66189;49.000;11.640;2023-02-16T00:52:56;97027.34;;;-3.16;93.16
31775;BME280;66189;49.000;11.640;2023-02-16T00:54:59;97024.16;;;-3.18;92.91
31775;BME280;66189;49.000;11.640;2023-02-16T00:57:00;97028.13;;;-3.16;93.19
31775;BME280;66189;49.000;11.640;2023-02-16T00:59:02;97021.81;;;-3.15;93.22
31775;BME280;66189;49.000;11.640;2023-02-16T01:01:07;97023.28;;;-3.24;93.08
31775;BME280;66189;49.000;11.640;2023-02-16T01:03:13;97020.22;;;-3.16;93.08
31775;BME280;66189;49.000;11.640;2023-02-16T01:05:15;97016.31;;;-3.13;93.11
31775;BME280;66189;49.000;11.640;2023-02-16T01:07:17;97017.06;;;-3.18;93.09
31775;BME280;66189;49.000;11.640;2023-02-16T01:09:38;97016.28;;;-2.96;92.82
31775;BME280;66189;49.000;11.640;2023-02-16T01:11:57;97015.97;;;-3.00;92.78
31775;BME280;66189;49.000;11.640;2023-02-16T01:13:58;97008.19;;;-3.12;92.57
31775;BME280;66189;49.000;11.640;2023-02-16T01:15:58;97012.00;;;-3.03;92.65
31775;BME280;66189;49.000;11.640;2023-02-16T01:18:03;97002.13;;;-3.12;92.66
31775;BME280;66189;49.000;11.640;2023-02-16T01:20:20;97001.50;;;-3.19;93.08
31775;BME280;66189;49.000;11.640;2023-02-16T01:22:21;97002.38;;;-3.14;92.94
31775;BME280;66189;49.000;11.640;2023-02-16T01:24:21;97006.91;;;-3.09;92.88
31775;BME280;66189;49.000;11.640;2023-02-16T01:26:21;97003.66;;;-3.16;93.23
31775;BME280;66189;49.000;11.640;2023-02-16T01:28:24;97002.28;;;-3.19;93.16
31775;BME280;66189;49.000;11.640;2023-02-16T01:30:25;97006.13;;;-3.27;93.16
31775;BME280;66189;49.000;11.640;2023-02-16T01:32:25;97006.59;;;-3.13;93.29
31775;BME280;66189;49.000;11.640;2023-02-16T01:34:26;97006.94;;;-3.26;93.17
31775;BME280;66189;49.000;11.640;2023-02-16T01:36:35;97008.66;;;-3.15;93.36
31775;BME280;66189;49.000;11.640;2023-02-16T01:38:39;96999.88;;;-3.04;93.12
31775;BME280;66189;49.000;11.640;2023-02-16T01:40:43;97007.84;;;-2.98;92.92
31775;BME280;66189;49.000;11.640;2023-02-16T01:42:56;96998.13;;;-3.15;92.86
31775;BME280;66189;49.000;11.640;2023-02-16T01:45:03;97003.88;;;-3.18;92.70
31775;BME280;66189;49.000;11.640;2023-02-16T01:47:27;96995.78;;;-3.33;92.83
31775;BME280;66189;49.000;11.640;2023-02-16T01:49:29;96997.84;;;-3.18;92.98
31775;BME280;66189;49.000;11.640;2023-02-16T01:51:36;96990.97;;;-3.19;93.08
31775;BME280;66189;49.000;11.640;2023-02-16T01:56:18;96990.97;;;-3.19;93.12
31775;BME280;66189;49.000;11.640;2023-02-16T01:58:34;96983.88;;;-3.19;92.76
31775;BME280;66189;49.000;11.640;2023-02-16T02:02:53;96977.66;;;-3.30;92.80
31775;BME280;66189;49.000;11.640;2023-02-16T02:05:26;96978.75;;;-3.48;93.03
31775;BME280;66189;49.000;11.640;2023-02-16T02:07:43;96976.03;;;-3.53;92.97
31775;BME280;66189;49.000;11.640;2023-02-16T02:10:00;96978.97;;;-3.32;93.52
31775;BME280;66189;49.000;11.640;2023-02-16T02:12:18;96974.50;;;-3.32;93.34
31775;BME280;66189;49.000;11.640;2023-02-16T02:14:26;96970.13;;;-3.43;93.42
31775;BME280;66189;49.000;11.640;2023-02-16T02:16:28;96979.53;;;-3.30;93.44
31775;BME280;66189;49.000;11.640;2023-02-16T02:18:29;96970.03;;;-3.31;93.36
31775;BME280;66189;49.000;11.640;2023-02-16T02:20:48;96964.75;;;-3.31;93.25
31775;BME280;66189;49.000;11.640;2023-02-16T02:28:25;96956.72;;;-3.25;92.97
31775;BME280;66189;49.000;11.640;2023-02-16T02:33:03;96956.50;;;-3.40;92.76
31775;BME280;66189;49.000;11.640;2023-02-16T02:35:37;96956.13;;;-3.27;92.96
31775;BME280;66189;49.000;11.640;2023-02-16T02:37:47;96960.47;;;-3.37;92.77
31775;BME280;66189;49.000;11.640;2023-02-16T02:42:26;96962.56;;;-3.40;93.16
31775;BME280;66189;49.000;11.640;2023-02-16T02:44:30;96960.47;;;-3.37;93.10
31775;BME280;66189;49.000;11.640;2023-02-16T02:46:33;96958.41;;;-3.35;93.25
31775;BME280;66189;49.000;11.640;2023-02-16T02:48:37;96951.59;;;-3.31;93.10
31775;BME280;66189;49.000;11.640;2023-02-16T02:50:49;96949.31;;;-3.28;93.15
31775;BME280;66189;49.000;11.640;2023-02-16T02:53:13;96945.94;;;-3.23;93.33
31775;BME280;66189;49.000;11.640;2023-02-16T02:55:15;96953.00;;;-3.24;93.01
31775;BME280;66189;49.000;11.640;2023-02-16T03:02:17;96943.66;;;-3.14;92.68
31775;BME280;66189;49.000;11.640;2023-02-16T03:04:21;96939.13;;;-3.19;92.47
31775;BME280;66189;49.000;11.640;2023-02-16T03:06:27;96939.63;;;-3.22;92.38
31775;BME280;66189;49.000;11.640;2023-02-16T03:08:32;96938.03;;;-3.23;92.54
31775;BME280;66189;49.000;11.640;2023-02-16T03:10:35;96941.25;;;-3.38;92.63
31775;BME280;66189;49.000;11.640;2023-02-16T03:12:57;96942.06;;;-3.37;92.78
31775;BME280;66189;49.000;11.640;2023-02-16T03:15:00;96950.03;;;-3.32;92.92
31775;BME280;66189;49.000;11.640;2023-02-16T03:17:05;96956.13;;;-3.27;92.76
31775;BME280;66189;49.000;11.640;2023-02-16T03:19:25;96951.59;;;-3.31;92.83
31775;BME280;66189;49.000;11.640;2023-02-16T03:21:45;96960.06;;;-3.29;92.95
31775;BME280;66189;49.000;11.640;2023-02-16T03:24:07;96959.59;;;-3.26;93.16
31775;BME280;66189;49.000;11.640;2023-02-16T03:26:27;96962.63;;;-3.34;92.63
31775;BME280;66189;49.000;11.640;2023-02-16T03:28:47;96945.06;;;-3.29;92.56
31775;BME280;66189;49.000;11.640;2023-02-16T03:31:10;96952.19;;;-3.29;92.45
31775;BME280;66189;49.000;11.640;2023-02-16T03:33:11;96955.16;;;-3.43;92.72
31775;BME280;66189;49.000;11.640;2023-02-16T03:35:12;96959.69;;;-3.16;92.49
31775;BME280;66189;49.000;11.640;2023-02-16T03:37:13;96956.38;;;-3.28;92.50
31775;BME280;66189;49.000;11.640;2023-02-16T03:39:16;96954.09;;;-3.42;92.80
31775;BME280;66189;49.000;11.640;2023-02-16T03:41:17;96955.09;;;-3.26;92.74
31775;BME280;66189;49.000;11.640;2023-02-16T03:43:17;96946.19;;;-3.42;92.91
31775;BME280;66189;49.000;11.640;2023-02-16T03:45:19;96957.28;;;-3.40;92.78
31775;BME280;66189;49.000;11.640;2023-02-16T03:47:20;96952.91;;;-3.34;93.04
31775;BME280;66189;49.000;11.640;2023-02-16T03:49:20;96947.66;;;-3.34;92.79
31775;BME280;66189;49.000;11.640;2023-02-16T03:51:21;96953.00;;;-3.24;92.88
31775;BME280;66189;49.000;11.640;2023-02-16T03:53:21;96942.31;;;-3.17;92.71
31775;BME280;66189;49.000;11.640;2023-02-16T03:55:21;96946.91;;;-3.29;92.42
31775;BME280;66189;49.000;11.640;2023-02-16T03:57:22;96941.56;;;-3.34;92.54
31775;BME280;66189;49.000;11.640;2023-02-16T03:59:22;96945.75;;;-3.16;92.31
31775;BME280;66189;49.000;11.640;2023-02-16T04:01:23;96939.06;;;-3.24;92.31
31775;BME280;66189;49.000;11.640;2023-02-16T04:03:24;96946.97;;;-3.24;92.41
31775;BME280;66189;49.000;11.640;2023-02-16T04:05:25;96947.31;;;-3.37;92.39
31775;BME280;66189;49.000;11.640;2023-02-16T04:07:27;96938.81;;;-3.23;92.37
31775;BME280;66189;49.000;11.640;2023-02-16T04:09:28;96942.25;;;-3.22;92.21
31775;BME280;66189;49.000;11.640;2023-02-16T04:11:28;96935.22;;;-3.38;92.47
31775;BME280;66189;49.000;11.640;2023-02-16T04:13:47;96937.75;;;-3.44;92.58
31775;BME280;66189;49.000;11.640;2023-02-16T04:15:47;96936.69;;;-3.65;92.44
31775;BME280;66189;49.000;11.640;2023-02-16T04:17:48;96947.34;;;-3.54;92.95
31775;BME280;66189;49.000;11.640;2023-02-16T04:19:49;96956.59;;;-3.52;92.88
31775;BME280;66189;49.000;11.640;2023-02-16T04:21:50;96955.78;;;-3.52;92.99
31775;BME280;66189;49.000;11.640;2023-02-16T04:23:52;96953.97;;;-3.52;93.12
31775;BME280;66189;49.000;11.640;2023-02-16T04:25:52;96951.88;;;-3.50;93.37
31775;BME280;66189;49.000;11.640;2023-02-16T04:27:53;96946.63;;;-3.50;93.41
31775;BME280;66189;49.000;11.640;2023-02-16T04:29:54;96951.66;;;-3.48;93.60
31775;BME280;66189;49.000;11.640;2023-02-16T04:31:54;96945.59;;;-3.49;93.49
31775;BME280;66189;49.000;11.640;2023-02-16T04:33:55;96952.06;;;-3.57;93.36
31775;BME280;66189;49.000;11.640;2023-02-16T04:35:55;96961.94;;;-3.47;93.46
31775;BME280;66189;49.000;11.640;2023-02-16T04:37:56;96956.13;;;-3.27;93.24
31775;BME280;66189;49.000;11.640;2023-02-16T04:39:56;96953.88;;;-3.40;93.07
31775;BME280;66189;49.000;11.640;2023-02-16T04:41:56;96952.91;;;-3.34;92.87
31775;BME280;66189;49.000;11.640;2023-02-16T04:43:57;96956.91;;;-3.48;92.98
31775;BME280;66189;49.000;11.640;2023-02-16T04:45:58;96957.84;;;-3.37;92.92
31775;BME280;66189;49.000;11.640;2023-02-16T04:47:59;96958.66;;;-3.37;92.49
31775;BME280;66189;49.000;11.640;2023-02-16T04:50:00;96949.94;;;-3.37;92.84
31775;BME280;66189;49.000;11.640;2023-02-16T04:52:01;96942.44;;;-3.29;92.45
31775;BME280;66189;49.000;11.640;2023-02-16T04:54:03;96937.22;;;-3.46;92.38
31775;BME280;66189;49.000;11.640;2023-02-16T04:56:03;96938.78;;;-3.45;92.71
31775;BME280;66189;49.000;11.640;2023-02-16T04:58:04;96939.28;;;-3.48;92.83
31775;BME280;66189;49.000;11.640;2023-02-16T05:00:09;96936.41;;;-3.46;92.95
31775;BME280;66189;49.000;11.640;2023-02-16T05:02:11;96941.84;;;-3.53;93.08
31775;BME280;66189;49.000;11.640;2023-02-16T05:04:11;96945.25;;;-3.52;93.09
31775;BME280;66189;49.000;11.640;2023-02-16T05:06:12;96942.16;;;-3.49;92.80
31775;BME280;66189;49.000;11.640;2023-02-16T05:08:12;96946.38;;;-3.48;93.22
31775;BME280;66189;49.000;11.640;2023-02-16T05:10:13;96937.38;;;-3.52;93.35
31775;BME280;66189;49.000;11.640;2023-02-16T05:12:13;96948.13;;;-3.54;93.20
31775;BME280;66189;49.000;11.640;2023-02-16T05:14:43;96954.09;;;-3.42;92.88
31775;BME280;66189;49.000;11.640;2023-02-16T05:16:45;96952.13;;;-3.51;92.96
31775;BME280;66189;49.000;11.640;2023-02-16T05:18:45;96962.31;;;-3.38;93.14
31775;BME280;66189;49.000;11.640;2023-02-16T05:20:46;96956.28;;;-3.38;93.22
31775;BME280;66189;49.000;11.640;2023-02-16T05:23:05;96962.56;;;-3.40;93.23
31775;BME280;66189;49.000;11.640;2023-02-16T05:25:06;96958.66;;;-3.37;93.25
31775;BME280;66189;49.000;11.640;2023-02-16T05:27:11;96956.88;;;-3.31;93.13
31775;BME280;66189;49.000;11.640;2023-02-16T05:29:11;96958.31;;;-3.41;93.07
31775;BME280;66189;49.000;11.640;2023-02-16T05:31:12;96942.81;;;-3.20;92.74
31775;BME280;66189;49.000;11.640;2023-02-16T05:33:12;96956.47;;;-3.23;92.62
31775;BME280;66189;49.000;11.640;2023-02-16T05:35:13;96972.09;;;-3.33;92.63
31775;BME280;66189;49.000;11.640;2023-02-16T05:37:15;96984.16;;;-3.37;92.79
31775;BME280;66189;49.000;11.640;2023-02-16T05:39:16;96987.44;;;-3.47;92.74
31775;BME280;66189;49.000;11.640;2023-02-16T05:41:16;96993.50;;;-3.47;92.83
31775;BME280;66189;49.000;11.640;2023-02-16T05:43:22;96993.44;;;-3.52;93.23
31775;BME280;66189;49.000;11.640;2023-02-16T05:45:23;96984.72;;;-3.52;92.93
31775;BME280;66189;49.000;11.640;2023-02-16T05:47:23;96990.63;;;-3.45;92.84
31775;BME280;66189;49.000;11.640;2023-02-16T05:49:23;96986.47;;;-3.41;93.42
31775;BME280;66189;49.000;11.640;2023-02-16T05:51:25;97002.66;;;-3.49;93.40
31775;BME280;66189;49.000;11.640;2023-02-16T05:53:26;96999.31;;;-3.45;93.50
31775;BME280;66189;49.000;11.640;2023-02-16T05:55:27;96992.47;;;-3.46;93.51
31775;BME280;66189;49.000;11.640;2023-02-16T05:57:27;96989.91;;;-3.41;93.60
31775;BME280;66189;49.000;11.640;2023-02-16T05:59:28;96996.19;;;-3.42;93.66
31775;BME280;66189;49.000;11.640;2023-02-16T06:01:28;97001.63;;;-3.48;93.38
31775;BME280;66189;49.000;11.640;2023-02-16T06:03:29;97002.91;;;-3.51;93.35
31775;BME280;66189;49.000;11.640;2023-02-16T06:05:30;97002.50;;;-3.43;93.53
31775;BME280;66189;49.000;11.640;2023-02-16T06:07:30;97004.56;;;-3.45;93.44
31775;BME280;66189;49.000;11.640;2023-02-16T06:09:31;97006.66;;;-3.47;93.55
31775;BME280;66189;49.000;11.640;2023-02-16T06:11:31;97009.25;;;-3.30;93.45
31775;BME280;66189;49.000;11.640;2023-02-16T06:13:37;97003.28;;;-3.42;93.13
31775;BME280;66189;49.000;11.640;2023-02-16T06:15:38;97007.75;;;-3.43;93.45
31775;BME280;66189;49.000;11.640;2023-02-16T06:17:38;97004.00;;;-3.47;93.49
31775;BME280;66189;49.000;11.640;2023-02-16T06:19:38;97004.75;;;-3.51;93.29
31775;BME280;66189;49.000;11.640;2023-02-16T06:21:39;97007.91;;;-3.49;93.22
31775;BME280;66189;49.000;11.640;2023-02-16T06:23:40;97008.94;;;-3.33;93.28
31775;BME280;66189;49.000;11.640;2023-02-16T06:25:41;97008.56;;;-3.42;93.34
31775;BME280;66189;49.000;11.640;2023-02-16T06:27:42;97018.94;;;-3.35;93.27
31775;BME280;66189;49.000;11.640;2023-02-16T06:29:42;97012.06;;;-3.36;93.06
31775;BME280;66189;49.000;11.640;2023-02-16T06:31:43;97010.16;;;-3.41;93.00
31775;BME280;66189;49.000;11.640;2023-02-16T06:33:43;97008.69;;;-3.32;92.97
31775;BME280;66189;49.000;11.640;2023-02-16T06:35:44;97022.72;;;-3.43;93.09
31775;BME280;66189;49.000;11.640;2023-02-16T06:37:44;97016.69;;;-3.44;93.47
31775;BME280;66189;49.000;11.640;2023-02-16T06:39:46;97022.50;;;-3.42;93.17
31775;BME280;66189;49.000;11.640;2023-02-16T06:41:46;97019.16;;;-3.37;93.39
31775;BME280;66189;49.000;11.640;2023-02-16T06:43:47;97017.16;;;-3.47;93.17
31775;BME280;66189;49.000;11.640;2023-02-16T06:45:47;97019.47;;;-3.33;93.40
31775;BME280;66189;49.000;11.640;2023-02-16T06:47:48;97019.47;;;-3.33;93.44
31775;BME280;66189;49.000;11.640;2023-02-16T06:49:48;97023.31;;;-3.41;93.57
31775;BME280;66189;49.000;11.640;2023-02-16T06:51:49;97024.50;;;-3.32;93.33
31775;BME280;66189;49.000;11.640;2023-02-16T06:53:49;97023.06;;;-3.40;93.31
31775;BME280;66189;49.000;11.640;2023-02-16T06:55:50;97020.34;;;-3.28;93.15
31775;BME280;66189;49.000;11.640;2023-02-16T06:57:50;97018.03;;;-3.24;93.18
31775;BME280;66189;49.000;11.640;2023-02-16T06:59:51;97013.91;;;-3.37;93.09
31775;BME280;66189;49.000;11.640;2023-02-16T07:01:51;97012.69;;;-3.29;93.06
31775;BME280;66189;49.000;11.640;2023-02-16T07:03:52;97011.25;;;-3.20;93.19
31775;BME280;66189;49.000;11.640;2023-02-16T07:05:53;97017.47;;;-3.26;92.86
31775;BME280;66189;49.000;11.640;2023-02-16T07:07:54;97009.94;;;-3.17;93.16
31775;BME280;66189;49.000;11.640;2023-02-16T07:09:54;97017.00;;;-3.23;92.82
31775;BME280;66189;49.000;11.640;2023-02-16T07:11:55;97024.94;;;-3.18;92.98
31775;BME280;66189;49.000;11.640;2023-02-16T07:13:55;97023.91;;;-3.17;92.80
31775;BME280;66189;49.000;11.640;2023-02-16T07:15:56;97020.84;;;-3.09;92.65
31775;BME280;66189;49.000;11.640;2023-02-16T07:17:56;97019.50;;;-3.11;92.49
31775;BME280;66189;49.000;11.640;2023-02-16T07:19:57;97028.91;;;-2.98;92.38
31775;BME280;66189;49.000;11.640;2023-02-16T07:21:58;97022.13;;;-3.11;92.42
31775;BME280;66189;49.000;11.640;2023-02-16T07:23:59;97027.72;;;-3.08;92.59
31775;BME280;66189;49.000;11.640;2023-02-16T07:25:59;97027.97;;;-3.09;92.54
31775;BME280;66189;49.000;11.640;2023-02-16T07:27:59;97023.69;;;-2.93;92.47
31775;BME280;66189;49.000;11.640;2023-02-16T07:30:00;97028.66;;;-2.97;92.18
31775;BME280;66189;49.000;11.640;2023-02-16T07:32:01;97033.63;;;-3.00;92.18
31775;BME280;66189;49.000;11.640;2023-02-16T07:34:02;97029.69;;;-2.98;92.56
31775;BME280;66189;49.000;11.640;2023-02-16T07:36:03;97026.56;;;-2.95;92.33
31775;BME280;66189;49.000;11.640;2023-02-16T07:38:04;97035.53;;;-2.96;92.49
31775;BME280;66189;49.000;11.640;2023-02-16T07:40:05;97032.94;;;-2.91;92.58
31775;BME280;66189;49.000;11.640;2023-02-16T07:42:06;97037.81;;;-2.99;92.29
31775;BME280;66189;49.000;11.640;2023-02-16T07:44:07;97041.56;;;-2.95;91.95
31775;BME280;66189;49.000;11.640;2023-02-16T07:46:08;97042.19;;;-2.88;92.32
31775;BME280;66189;49.000;11.640;2023-02-16T07:48:08;97042.75;;;-2.86;92.58
31775;BME280;66189;49.000;11.640;2023-02-16T07:50:09;97037.78;;;-2.82;92.39
31775;BME280;66189;49.000;11.640;2023-02-16T07:52:10;97040.34;;;-2.88;92.30
31775;BME280;66189;49.000;11.640;2023-02-16T07:54:10;97039.25;;;-2.92;92.58
31775;BME280;66189;49.000;11.640;2023-02-16T07:56:21;97036.44;;;-2.85;92.30
31775;BME280;66189;49.000;11.640;2023-02-16T07:58:21;97031.00;;;-2.78;92.26
31775;BME280;66189;49.000;11.640;2023-02-16T08:00:27;97039.06;;;-2.85;92.02
31775;BME280;66189;49.000;11.640;2023-02-16T08:02:28;97034.31;;;-2.88;92.26
31775;BME280;66189;49.000;11.640;2023-02-16T08:04:28;97042.38;;;-2.73;92.38
31775;BME280;66189;49.000;11.640;2023-02-16T08:06:29;97039.56;;;-2.88;92.39
31775;BME280;66189;49.000;11.640;2023-02-16T08:08:30;97033.94;;;-2.75;91.89
31775;BME280;66189;49.000;11.640;2023-02-16T08:10:31;97031.97;;;-2.84;92.12
31775;BME280;66189;49.000;11.640;2023-02-16T08:12:31;97036.81;;;-2.76;92.32
31775;BME280;66189;49.000;11.640;2023-02-16T08:14:32;97030.88;;;-2.66;92.27
31775;BME280;66189;49.000;11.640;2023-02-16T08:16:32;97037.25;;;-2.62;92.13
31775;BME280;66189;49.000;11.640;2023-02-16T08:18:33;97042.81;;;-2.59;91.94
31775;BME280;66189;49.000;11.640;2023-02-16T08:20:33;97045.19;;;-2.57;91.86
31775;BME280;66189;49.000;11.640;2023-02-16T08:22:34;97044.91;;;-2.61;92.02
31775;BME280;66189;49.000;11.640;2023-02-16T08:24:35;97043.72;;;-2.48;91.95
31775;BME280;66189;49.000;11.640;2023-02-16T08:26:39;97047.75;;;-2.40;91.24
31775;BME280;66189;49.000;11.640;2023-02-16T08:28:40;97042.50;;;-2.40;91.85
31775;BME280;66189;49.000;11.640;2023-02-16T08:30:45;97038.69;;;-2.27;91.78
31775;BME280;66189;49.000;11.640;2023-02-16T08:32:45;97046.47;;;-2.38;91.43
31775;BME280;66189;49.000;11.640;2023-02-16T08:34:48;97048.09;;;-2.37;91.40
31775;BME280;66189;49.000;11.640;2023-02-16T08:36:54;97045.13;;;-2.40;91.23
31775;BME280;66189;49.000;11.640;2023-02-16T08:38:55;97048.25;;;-2.43;91.61
31775;BME280;66189;49.000;11.640;2023-02-16T08:40:56;97037.78;;;-2.38;91.58
31775;BME280;66189;49.000;11.640;2023-02-16T08:42:56;97039.72;;;-2.28;91.37
31775;BME280;66189;49.000;11.640;2023-02-16T08:44:57;97031.56;;;-2.27;91.43
31775;BME280;66189;49.000;11.640;2023-02-16T08:46:59;97038.75;;;-2.22;91.59
31775;BME280;66189;49.000;11.640;2023-02-16T08:49:00;97039.78;;;-1.96;91.35
31775;BME280;66189;49.000;11.640;2023-02-16T08:51:01;97036.25;;;-2.07;90.65
31775;BME280;66189;49.000;11.640;2023-02-16T08:53:01;97033.13;;;-2.04;90.48
31775;BME280;66189;49.000;11.640;2023-02-16T08:55:02;97029.63;;;-1.82;90.47
31775;BME280;66189;49.000;11.640;2023-02-16T08:57:03;97029.81;;;-1.89;90.44
31775;BME280;66189;49.000;11.640;2023-02-16T08:59:03;97039.63;;;-1.84;90.22
31775;BME280;66189;49.000;11.640;2023-02-16T09:01:05;97037.06;;;-1.79;89.93
31775;BME280;66189;49.000;11.640;2023-02-16T09:03:07;97038.75;;;-1.95;90.04
31775;BME280;66189;49.000;11.640;2023-02-16T09:05:07;97037.88;;;-2.01;90.49
31775;BME280;66189;49.000;11.640;2023-02-16T09:07:09;97046.25;;;-1.82;90.38
31775;BME280;66189;49.000;11.640;2023-02-16T09:09:11;97049.00;;;-1.99;89.88
31775;BME280;66189;49.000;11.640;2023-02-16T09:11:14;97041.59;;;-2.02;90.37
31775;BME280;66189;49.000;11.640;2023-02-16T09:13:15;97045.25;;;-2.03;90.36
31775;BME280;66189;49.000;11.640;2023-02-16T09:15:15;97041.66;;;-1.91;90.26
31775;BME280;66189;49.000;11.640;2023-02-16T09:17:16;97046.03;;;-1.75;90.18
31775;BME280;66189;49.000;11.640;2023-02-16T09:19:18;97049.19;;;-1.78;90.19
31775;BME280;66189;49.000;11.640;2023-02-16T09:21:22;97060.19;;;-1.86;90.56
31775;BME280;66189;49.000;11.640;2023-02-16T09:23:22;97056.81;;;-1.82;91.33
31775;BME280;66189;49.000;11.640;2023-02-16T09:25:23;97052.66;;;-1.72;90.88
31775;BME280;66189;49.000;11.640;2023-02-16T09:27:24;97057.41;;;-1.74;90.50
31775;BME280;66189;49.000;11.640;2023-02-16T09:29:25;97063.72;;;-1.75;90.50
31775;BME280;66189;49.000;11.640;2023-02-16T09:31:27;97050.63;;;-1.65;90.53
31775;BME280;66189;49.000;11.640;2023-02-16T09:33:28;97059.47;;;-1.76;90.26
31775;BME280;66189;49.000;11.640;2023-02-16T09:35:29;97060.69;;;-1.57;90.23
31775;BME280;66189;49.000;11.640;2023-02-16T09:37:31;97066.75;;;-1.56;90.17
31775;BME280;66189;49.000;11.640;2023-02-16T09:39:31;97061.78;;;-1.53;90.22
31775;BME280;66189;49.000;11.640;2023-02-16T09:45:56;97072.72;;;-1.39;90.96
31775;BME280;66189;49.000;11.640;2023-02-16T09:47:57;97074.69;;;-1.24;90.69
31775;BME280;66189;49.000;11.640;2023-02-16T09:50:04;97069.09;;;-1.28;90.08
31775;BME280;66189;49.000;11.640;2023-02-16T09:54:47;97066.84;;;-1.14;90.30
31775;BME280;66189;49.000;11.640;2023-02-16T09:56:56;97061.56;;;-1.14;90.41
31775;BME280;66189;49.000;11.640;2023-02-16T09:59:14;97065.47;;;-1.21;89.93
31775;BME280;66189;49.000;11.640;2023-02-16T10:01:32;97069.75;;;-1.15;90.31
31775;BME280;66189;49.000;11.640;2023-02-16T10:06:27;97063.28;;;-0.92;90.28
31775;BME280;66189;49.000;11.640;2023-02-16T10:08:37;97069.84;;;-1.00;89.86
31775;BME280;66189;49.000;11.640;2023-02-16T10:11:02;97072.56;;;-0.84;90.28
31775;BME280;66189;49.000;11.640;2023-02-16T10:13:12;97074.97;;;-0.78;89.88
31775;BME280;66189;49.000;11.640;2023-02-16T10:15:20;97080.28;;;-0.73;89.44
31775;BME280;66189;49.000;11.640;2023-02-16T10:17:31;97079.53;;;-0.68;88.88
31775;BME280;66189;49.000;11.640;2023-02-16T10:19:45;97078.22;;;-0.60;88.99
31775;BME280;66189;49.000;11.640;2023-02-16T10:21:52;97080.03;;;-0.71;89.43
31775;BME280;66189;49.000;11.640;2023-02-16T10:23:59;97087.19;;;-0.66;90.06
31775;BME280;66189;49.000;11.640;2023-02-16T10:28:46;97074.00;;;-0.61;89.02
31775;BME280;66189;49.000;11.640;2023-02-16T10:30:50;97076.75;;;-0.36;88.22
31775;BME280;66189;49.000;11.640;2023-02-16T10:33:01;97077.78;;;-0.42;88.55
31775;BME280;66189;49.000;11.640;2023-02-16T10:35:22;97072.75;;;-0.43;88.47
31775;BME280;66189;49.000;11.640;2023-02-16T10:37:37;97066.22;;;-0.30;88.44
31775;BME280;66189;49.000;11.640;2023-02-16T10:44:30;97060.38;;;-0.32;89.17
31775;BME280;66189;49.000;11.640;2023-02-16T10:46:39;97055.84;;;-0.37;89.00
31775;BME280;66189;49.000;11.640;2023-02-16T10:48:41;97049.81;;;-0.17;88.72
31775;BME280;66189;49.000;11.640;2023-02-16T10:50:59;97042.69;;;-0.22;88.57
31775;BME280;66189;49.000;11.640;2023-02-16T10:53:07;97043.50;;;-0.21;88.42
31775;BME280;66189;49.000;11.640;2023-02-16T10:55:11;97036.91;;;-0.03;89.17
31775;BME280;66189;49.000;11.640;2023-02-16T10:57:23;97031.88;;;0.01;88.64
31775;BME280;66189;49.000;11.640;2023-02-16T10:59:29;97024.47;;;0.03;89.14
31775;BME280;66189;49.000;11.640;2023-02-16T11:01:43;97027.91;;;-0.02;88.25
31775;BME280;66189;49.000;11.640;2023-02-16T11:03:46;97027.16;;;0.08;88.28
31775;BME280;66189;49.000;11.640;2023-02-16T11:05:48;97030.59;;;0.19;88.44
31775;BME280;66189;49.000;11.640;2023-02-16T11:07:53;97023.97;;;0.31;88.33
31775;BME280;66189;49.000;11.640;2023-02-16T11:09:55;97023.97;;;0.42;88.18
31775;BME280;66189;49.000;11.640;2023-02-16T11:11:56;97025.03;;;0.30;87.79
31775;BME280;66189;49.000;11.640;2023-02-16T11:13:59;97022.38;;;0.51;87.71
31775;BME280;66189;49.000;11.640;2023-02-16T11:16:09;97017.88;;;0.51;87.50
31775;BME280;66189;49.000;11.640;2023-02-16T11:22:45;97021.59;;;0.56;87.34
31775;BME280;66189;49.000;11.640;2023-02-16T11:24:45;97018.91;;;0.81;88.17
31775;BME280;66189;49.000;11.640;2023-02-16T11:27:17;97021.00;;;0.89;87.93
31775;BME280;66189;49.000;11.640;2023-02-16T11:29:19;97015.41;;;1.01;88.04
31775;BME280;66189;49.000;11.640;2023-02-16T11:31:38;97016.50;;;1.00;87.14
31775;BME280;66189;49.000;11.640;2023-02-16T11:33:40;97006.97;;;0.89;88.03